sensor_id;sensor_type;location;lat;lon;timestamp;P1;durP1;ratioP1;P2;durP2;ratioP2
58565;SDS011;47788;46.172;-1.158;2022-09-27T00:01:08;20.65;;;2.95;;
58565;SDS011;47788;46.172;-1.158;2022-09-27T00:03:35;23.45;;;3.85;;
58565;SDS011;47788;46.172;-1.158;2022-09-27T00:08:38;19.33;;;3.40;;
58565;SDS011;47788;46.172;-1.158;2022-09-27T00:11:05;16.48;;;3.10;;
58565;SDS011;47788;46.172;-1.158;2022-09-27T00:13:33;22.85;;;3.33;;
58565;SDS011;47788;46.172;-1.158;2022-09-27T00:15:59;17.38;;;2.78;;
58565;SDS011;47788;46.172;-1.158;2022-09-27T00:18:29;22.00;;;3.60;;
58565;SDS011;47788;46.172;-1.158;2022-09-27T00:20:55;16.67;;;2.83;;
58565;SDS011;47788;46.172;-1.158;2022-09-27T00:23:28;14.00;;;3.10;;
58565;SDS011;47788;46.172;-1.158;2022-09-27T00:25:54;16.63;;;3.05;;
58565;SDS011;47788;46.172;-1.158;2022-09-27T00:28:21;20.88;;;3.65;;
58565;SDS011;47788;46.172;-1.158;2022-09-27T00:30:47;17.00;;;2.95;;
58565;SDS011;47788;46.172;-1.158;2022-09-27T00:33:13;20.75;;;3.45;;
58565;SDS011;47788;46.172;-1.158;2022-09-27T00:35:39;18.52;;;2.90;;
58565;SDS011;47788;46.172;-1.158;2022-09-27T00:38:05;20.95;;;3.00;;
58565;SDS011;47788;46.172;-1.158;2022-09-27T00:40:31;18.92;;;3.35;;
58565;SDS011;47788;46.172;-1.158;2022-09-27T00:42:56;12.80;;;2.97;;
58565;SDS011;47788;46.172;-1.158;2022-09-27T00:45:22;25.45;;;4.05;;
58565;SDS011;47788;46.172;-1.158;2022-09-27T00:47:50;18.40;;;3.05;;
58565;SDS011;47788;46.172;-1.158;2022-09-27T00:50:28;16.77;;;3.53;;
58565;SDS011;47788;46.172;-1.158;2022-09-27T00:53:10;16.55;;;2.75;;
58565;SDS011;47788;46.172;-1.158;2022-09-27T00:55:45;17.03;;;3.20;;
58565;SDS011;47788;46.172;-1.158;2022-09-27T00:58:26;15.68;;;2.75;;
58565;SDS011;47788;46.172;-1.158;2022-09-27T01:00:56;14.98;;;2.30;;
58565;SDS011;47788;46.172;-1.158;2022-09-27T01:06:11;18.98;;;2.70;;
58565;SDS011;47788;46.172;-1.158;2022-09-27T01:08:38;14.65;;;2.65;;
58565;SDS011;47788;46.172;-1.158;2022-09-27T01:11:17;17.00;;;2.78;;
58565;SDS011;47788;46.172;-1.158;2022-09-27T01:22:29;14.93;;;2.40;;
58565;SDS011;47788;46.172;-1.158;2022-09-27T01:25:25;20.83;;;2.75;;
58565;SDS011;47788;46.172;-1.158;2022-09-27T01:28:20;19.20;;;3.25;;
58565;SDS011;47788;46.172;-1.158;2022-09-27T01:41:28;16.88;;;2.47;;
58565;SDS011;47788;46.172;-1.158;2022-09-27T01:49:16;16.58;;;3.38;;
58565;SDS011;47788;46.172;-1.158;2022-09-27T01:51:47;15.57;;;2.60;;
58565;SDS011;47788;46.172;-1.158;2022-09-27T01:54:21;23.75;;;3.30;;
58565;SDS011;47788;46.172;-1.158;2022-09-27T01:56:52;15.25;;;1.98;;
58565;SDS011;47788;46.172;-1.158;2022-09-27T01:59:25;15.70;;;2.35;;
58565;SDS011;47788;46.172;-1.158;2022-09-27T02:02:07;16.00;;;2.92;;
58565;SDS011;47788;46.172;-1.158;2022-09-27T02:04:36;14.65;;;2.60;;
58565;SDS011;47788;46.172;-1.158;2022-09-27T02:07:07;19.45;;;3.47;;
58565;SDS011;47788;46.172;-1.158;2022-09-27T02:09:49;17.80;;;2.97;;
58565;SDS011;47788;46.172;-1.158;2022-09-27T02:12:21;17.83;;;2.78;;
58565;SDS011;47788;46.172;-1.158;2022-09-27T02:14:53;15.70;;;2.45;;
58565;SDS011;47788;46.172;-1.158;2022-09-27T02:17:23;20.08;;;2.72;;
58565;SDS011;47788;46.172;-1.158;2022-09-27T02:20:00;16.83;;;2.25;;
58565;SDS011;47788;46.172;-1.158;2022-09-27T02:22:32;18.27;;;2.50;;
58565;SDS011;47788;46.172;-1.158;2022-09-27T02:25:19;17.08;;;3.00;;
58565;SDS011;47788;46.172;-1.158;2022-09-27T02:28:03;26.95;;;2.90;;
58565;SDS011;47788;46.172;-1.158;2022-09-27T02:30:36;14.13;;;2.65;;
58565;SDS011;47788;46.172;-1.158;2022-09-27T02:33:03;11.05;;;2.15;;
58565;SDS011;47788;46.172;-1.158;2022-09-27T02:35:30;17.90;;;2.22;;
58565;SDS011;47788;46.172;-1.158;2022-09-27T02:37:58;16.67;;;3.17;;
58565;SDS011;47788;46.172;-1.158;2022-09-27T02:40:24;12.43;;;2.00;;
58565;SDS011;47788;46.172;-1.158;2022-09-27T02:42:55;16.83;;;2.78;;
58565;SDS011;47788;46.172;-1.158;2022-09-27T02:45:22;13.02;;;2.00;;
58565;SDS011;47788;46.172;-1.158;2022-09-27T02:47:58;14.70;;;2.45;;
58565;SDS011;47788;46.172;-1.158;2022-09-27T03:04:27;14.32;;;2.20;;
58565;SDS011;47788;46.172;-1.158;2022-09-27T03:06:56;15.55;;;1.95;;
58565;SDS011;47788;46.172;-1.158;2022-09-27T03:09:24;15.55;;;2.25;;
58565;SDS011;47788;46.172;-1.158;2022-09-27T03:11:54;13.05;;;2.28;;
58565;SDS011;47788;46.172;-1.158;2022-09-27T03:14:19;12.82;;;2.03;;
58565;SDS011;47788;46.172;-1.158;2022-09-27T03:16:45;13.40;;;2.75;;
58565;SDS011;47788;46.172;-1.158;2022-09-27T03:19:11;15.77;;;2.38;;
58565;SDS011;47788;46.172;-1.158;2022-09-27T03:21:37;17.63;;;2.25;;
58565;SDS011;47788;46.172;-1.158;2022-09-27T03:24:04;22.48;;;3.65;;
58565;SDS011;47788;46.172;-1.158;2022-09-27T03:26:29;19.67;;;2.72;;
58565;SDS011;47788;46.172;-1.158;2022-09-27T03:28:55;15.88;;;1.80;;
58565;SDS011;47788;46.172;-1.158;2022-09-27T03:31:21;14.07;;;2.42;;
58565;SDS011;47788;46.172;-1.158;2022-09-27T03:33:47;11.05;;;1.83;;
58565;SDS011;47788;46.172;-1.158;2022-09-27T03:36:12;18.60;;;2.35;;
58565;SDS011;47788;46.172;-1.158;2022-09-27T03:38:38;10.95;;;2.40;;
58565;SDS011;47788;46.172;-1.158;2022-09-27T03:41:04;17.55;;;2.38;;
58565;SDS011;47788;46.172;-1.158;2022-09-27T03:43:30;22.02;;;2.40;;
58565;SDS011;47788;46.172;-1.158;2022-09-27T03:45:56;13.15;;;2.10;;
58565;SDS011;47788;46.172;-1.158;2022-09-27T03:48:21;20.92;;;2.20;;
58565;SDS011;47788;46.172;-1.158;2022-09-27T03:50:49;14.23;;;2.33;;
58565;SDS011;47788;46.172;-1.158;2022-09-27T03:53:15;16.98;;;2.35;;
58565;SDS011;47788;46.172;-1.158;2022-09-27T03:55:44;15.98;;;2.70;;
58565;SDS011;47788;46.172;-1.158;2022-09-27T03:58:10;15.88;;;2.50;;
58565;SDS011;47788;46.172;-1.158;2022-09-27T04:00:36;15.63;;;2.10;;
58565;SDS011;47788;46.172;-1.158;2022-09-27T04:03:01;20.98;;;2.88;;
58565;SDS011;47788;46.172;-1.158;2022-09-27T04:05:28;17.08;;;2.42;;
58565;SDS011;47788;46.172;-1.158;2022-09-27T04:07:54;17.15;;;2.30;;
58565;SDS011;47788;46.172;-1.158;2022-09-27T04:10:20;14.45;;;1.75;;
58565;SDS011;47788;46.172;-1.158;2022-09-27T04:12:46;14.65;;;2.60;;
58565;SDS011;47788;46.172;-1.158;2022-09-27T04:15:11;20.10;;;2.55;;
58565;SDS011;47788;46.172;-1.158;2022-09-27T04:17:39;17.13;;;2.42;;
58565;SDS011;47788;46.172;-1.158;2022-09-27T04:20:06;19.58;;;3.03;;
58565;SDS011;47788;46.172;-1.158;2022-09-27T04:22:33;14.80;;;2.38;;
58565;SDS011;47788;46.172;-1.158;2022-09-27T04:24:59;17.85;;;2.67;;
58565;SDS011;47788;46.172;-1.158;2022-09-27T04:27:25;22.95;;;2.67;;
58565;SDS011;47788;46.172;-1.158;2022-09-27T04:29:50;18.42;;;2.80;;
58565;SDS011;47788;46.172;-1.158;2022-09-27T04:32:16;18.38;;;2.33;;
58565;SDS011;47788;46.172;-1.158;2022-09-27T04:34:42;13.90;;;2.08;;
58565;SDS011;47788;46.172;-1.158;2022-09-27T04:37:26;17.85;;;2.50;;
58565;SDS011;47788;46.172;-1.158;2022-09-27T04:39:52;18.00;;;3.20;;
58565;SDS011;47788;46.172;-1.158;2022-09-27T04:42:18;14.85;;;3.00;;
58565;SDS011;47788;46.172;-1.158;2022-09-27T04:44:43;19.42;;;2.67;;
58565;SDS011;47788;46.172;-1.158;2022-09-27T04:47:09;16.23;;;2.25;;
58565;SDS011;47788;46.172;-1.158;2022-09-27T04:49:35;17.77;;;2.17;;
58565;SDS011;47788;46.172;-1.158;2022-09-27T04:52:02;16.10;;;2.45;;
58565;SDS011;47788;46.172;-1.158;2022-09-27T04:54:29;17.45;;;2.35;;
58565;SDS011;47788;46.172;-1.158;2022-09-27T04:56:55;16.60;;;2.70;;
58565;SDS011;47788;46.172;-1.158;2022-09-27T04:59:20;15.63;;;2.78;;
58565;SDS011;47788;46.172;-1.158;2022-09-27T05:01:46;15.63;;;2.08;;
58565;SDS011;47788;46.172;-1.158;2022-09-27T05:04:13;19.50;;;2.53;;
58565;SDS011;47788;46.172;-1.158;2022-09-27T05:06:39;13.43;;;2.58;;
58565;SDS011;47788;46.172;-1.158;2022-09-27T05:09:05;14.07;;;2.42;;
58565;SDS011;47788;46.172;-1.158;2022-09-27T05:11:30;23.38;;;2.08;;
58565;SDS011;47788;46.172;-1.158;2022-09-27T05:13:56;16.67;;;1.92;;
58565;SDS011;47788;46.172;-1.158;2022-09-27T05:16:22;14.70;;;2.10;;
58565;SDS011;47788;46.172;-1.158;2022-09-27T05:18:48;18.70;;;2.55;;
58565;SDS011;47788;46.172;-1.158;2022-09-27T05:21:14;17.40;;;2.55;;
58565;SDS011;47788;46.172;-1.158;2022-09-27T05:23:40;13.98;;;2.05;;
58565;SDS011;47788;46.172;-1.158;2022-09-27T05:26:06;14.75;;;2.05;;
58565;SDS011;47788;46.172;-1.158;2022-09-27T05:28:32;10.98;;;2.15;;
58565;SDS011;47788;46.172;-1.158;2022-09-27T05:31:01;15.43;;;2.70;;
58565;SDS011;47788;46.172;-1.158;2022-09-27T05:33:27;11.70;;;2.13;;
58565;SDS011;47788;46.172;-1.158;2022-09-27T05:35:53;8.70;;;1.70;;
58565;SDS011;47788;46.172;-1.158;2022-09-27T05:38:20;9.82;;;1.85;;
58565;SDS011;47788;46.172;-1.158;2022-09-27T05:40:47;13.38;;;1.50;;
58565;SDS011;47788;46.172;-1.158;2022-09-27T05:43:15;8.43;;;1.33;;
58565;SDS011;47788;46.172;-1.158;2022-09-27T05:45:41;9.35;;;1.50;;
58565;SDS011;47788;46.172;-1.158;2022-09-27T05:48:08;10.48;;;2.05;;
58565;SDS011;47788;46.172;-1.158;2022-09-27T05:50:36;6.97;;;1.25;;
58565;SDS011;47788;46.172;-1.158;2022-09-27T05:53:02;8.93;;;1.42;;
58565;SDS011;47788;46.172;-1.158;2022-09-27T05:55:28;14.10;;;1.05;;
58565;SDS011;47788;46.172;-1.158;2022-09-27T05:57:58;13.88;;;2.00;;
58565;SDS011;47788;46.172;-1.158;2022-09-27T06:00:26;8.45;;;1.52;;
58565;SDS011;47788;46.172;-1.158;2022-09-27T06:02:56;8.68;;;1.20;;
58565;SDS011;47788;46.172;-1.158;2022-09-27T06:05:23;9.70;;;1.13;;
58565;SDS011;47788;46.172;-1.158;2022-09-27T06:07:51;5.28;;;1.10;;
58565;SDS011;47788;46.172;-1.158;2022-09-27T06:10:21;8.18;;;1.73;;
58565;SDS011;47788;46.172;-1.158;2022-09-27T06:12:47;7.53;;;1.63;;
58565;SDS011;47788;46.172;-1.158;2022-09-27T06:15:14;9.77;;;1.30;;
58565;SDS011;47788;46.172;-1.158;2022-09-27T06:17:40;11.45;;;1.50;;
58565;SDS011;47788;46.172;-1.158;2022-09-27T06:20:06;11.13;;;2.30;;
58565;SDS011;47788;46.172;-1.158;2022-09-27T06:22:33;13.35;;;1.75;;
58565;SDS011;47788;46.172;-1.158;2022-09-27T06:25:01;13.35;;;1.67;;
58565;SDS011;47788;46.172;-1.158;2022-09-27T06:27:28;11.10;;;1.85;;
58565;SDS011;47788;46.172;-1.158;2022-09-27T06:29:57;13.32;;;1.95;;
58565;SDS011;47788;46.172;-1.158;2022-09-27T06:32:23;10.95;;;2.00;;
58565;SDS011;47788;46.172;-1.158;2022-09-27T06:34:48;11.63;;;2.03;;
58565;SDS011;47788;46.172;-1.158;2022-09-27T06:37:14;13.07;;;2.38;;
58565;SDS011;47788;46.172;-1.158;2022-09-27T06:39:40;12.93;;;1.60;;
58565;SDS011;47788;46.172;-1.158;2022-09-27T06:42:06;8.20;;;2.13;;
58565;SDS011;47788;46.172;-1.158;2022-09-27T06:44:32;11.77;;;2.38;;
58565;SDS011;47788;46.172;-1.158;2022-09-27T06:46:58;12.50;;;2.40;;
58565;SDS011;47788;46.172;-1.158;2022-09-27T06:49:24;10.45;;;1.77;;
58565;SDS011;47788;46.172;-1.158;2022-09-27T06:51:50;12.32;;;2.00;;
58565;SDS011;47788;46.172;-1.158;2022-09-27T06:54:17;11.75;;;1.73;;
58565;SDS011;47788;46.172;-1.158;2022-09-27T06:56:43;12.27;;;1.92;;
58565;SDS011;47788;46.172;-1.158;2022-09-27T06:59:11;10.40;;;1.52;;
58565;SDS011;47788;46.172;-1.158;2022-09-27T07:01:55;10.50;;;1.88;;
58565;SDS011;47788;46.172;-1.158;2022-09-27T07:04:21;13.60;;;1.80;;
58565;SDS011;47788;46.172;-1.158;2022-09-27T07:06:47;9.77;;;2.53;;
58565;SDS011;47788;46.172;-1.158;2022-09-27T07:09:13;7.55;;;1.70;;
58565;SDS011;47788;46.172;-1.158;2022-09-27T07:11:39;11.18;;;1.55;;
58565;SDS011;47788;46.172;-1.158;2022-09-27T07:14:08;13.95;;;1.63;;
58565;SDS011;47788;46.172;-1.158;2022-09-27T07:16:34;13.80;;;2.28;;
58565;SDS011;47788;46.172;-1.158;2022-09-27T07:19:00;9.43;;;1.67;;
58565;SDS011;47788;46.172;-1.158;2022-09-27T07:21:26;9.30;;;1.92;;
58565;SDS011;47788;46.172;-1.158;2022-09-27T07:23:52;12.93;;;3.33;;
58565;SDS011;47788;46.172;-1.158;2022-09-27T07:26:18;11.95;;;2.13;;
58565;SDS011;47788;46.172;-1.158;2022-09-27T07:28:44;8.70;;;1.63;;
58565;SDS011;47788;46.172;-1.158;2022-09-27T07:31:10;7.45;;;1.80;;
58565;SDS011;47788;46.172;-1.158;2022-09-27T07:33:37;9.15;;;1.52;;
58565;SDS011;47788;46.172;-1.158;2022-09-27T07:36:07;19.42;;;2.33;;
58565;SDS011;47788;46.172;-1.158;2022-09-27T07:38:34;8.52;;;1.98;;
58565;SDS011;47788;46.172;-1.158;2022-09-27T07:41:11;8.23;;;1.80;;
58565;SDS011;47788;46.172;-1.158;2022-09-27T07:43:39;11.35;;;2.15;;
58565;SDS011;47788;46.172;-1.158;2022-09-27T07:46:05;13.85;;;1.48;;
58565;SDS011;47788;46.172;-1.158;2022-09-27T07:48:32;8.27;;;2.03;;
58565;SDS011;47788;46.172;-1.158;2022-09-27T07:50:58;11.38;;;2.33;;
58565;SDS011;47788;46.172;-1.158;2022-09-27T07:53:24;9.65;;;1.90;;
58565;SDS011;47788;46.172;-1.158;2022-09-27T07:55:50;12.10;;;1.92;;
58565;SDS011;47788;46.172;-1.158;2022-09-27T07:58:17;9.05;;;1.80;;
58565;SDS011;47788;46.172;-1.158;2022-09-27T08:00:44;10.77;;;2.20;;
58565;SDS011;47788;46.172;-1.158;2022-09-27T08:03:11;11.73;;;2.20;;
58565;SDS011;47788;46.172;-1.158;2022-09-27T08:05:44;9.95;;;2.03;;
58565;SDS011;47788;46.172;-1.158;2022-09-27T08:08:11;9.60;;;1.73;;
58565;SDS011;47788;46.172;-1.158;2022-09-27T08:10:38;11.48;;;1.92;;
58565;SDS011;47788;46.172;-1.158;2022-09-27T08:13:08;8.65;;;2.00;;
58565;SDS011;47788;46.172;-1.158;2022-09-27T08:15:38;7.10;;;1.63;;
58565;SDS011;47788;46.172;-1.158;2022-09-27T08:18:05;5.90;;;1.38;;
58565;SDS011;47788;46.172;-1.158;2022-09-27T08:20:33;10.90;;;1.90;;
58565;SDS011;47788;46.172;-1.158;2022-09-27T08:22:59;8.23;;;1.42;;
58565;SDS011;47788;46.172;-1.158;2022-09-27T08:25:26;9.52;;;1.90;;
58565;SDS011;47788;46.172;-1.158;2022-09-27T08:27:57;7.10;;;1.42;;
58565;SDS011;47788;46.172;-1.158;2022-09-27T08:30:25;10.35;;;1.80;;
58565;SDS011;47788;46.172;-1.158;2022-09-27T08:32:55;9.85;;;2.05;;
58565;SDS011;47788;46.172;-1.158;2022-09-27T08:35:22;6.50;;;1.23;;
58565;SDS011;47788;46.172;-1.158;2022-09-27T08:37:54;13.70;;;1.77;;
58565;SDS011;47788;46.172;-1.158;2022-09-27T08:40:26;8.75;;;1.50;;
58565;SDS011;47788;46.172;-1.158;2022-09-27T08:43:05;11.90;;;1.70;;
58565;SDS011;47788;46.172;-1.158;2022-09-27T08:46:26;10.95;;;1.30;;
58565;SDS011;47788;46.172;-1.158;2022-09-27T08:48:37;9.43;;;1.27;;
58565;SDS011;47788;46.172;-1.158;2022-09-27T08:51:04;6.22;;;1.23;;
58565;SDS011;47788;46.172;-1.158;2022-09-27T08:56:05;17.40;;;2.33;;
58565;SDS011;47788;46.172;-1.158;2022-09-27T08:58:34;10.30;;;2.30;;
58565;SDS011;47788;46.172;-1.158;2022-09-27T09:01:14;14.32;;;2.00;;
58565;SDS011;47788;46.172;-1.158;2022-09-27T09:03:47;17.15;;;2.95;;
58565;SDS011;47788;46.172;-1.158;2022-09-27T09:15:24;10.70;;;1.98;;
58565;SDS011;47788;46.172;-1.158;2022-09-27T09:20:26;10.75;;;1.60;;
58565;SDS011;47788;46.172;-1.158;2022-09-27T09:25:52;9.77;;;1.90;;
58565;SDS011;47788;46.172;-1.158;2022-09-27T09:28:36;10.13;;;1.90;;
58565;SDS011;47788;46.172;-1.158;2022-09-27T09:31:21;10.00;;;1.90;;
58565;SDS011;47788;46.172;-1.158;2022-09-27T09:33:59;12.38;;;1.80;;
58565;SDS011;47788;46.172;-1.158;2022-09-27T09:36:30;10.90;;;2.40;;
58565;SDS011;47788;46.172;-1.158;2022-09-27T09:39:24;12.98;;;1.70;;
58565;SDS011;47788;46.172;-1.158;2022-09-27T09:49:59;10.82;;;2.15;;
58565;SDS011;47788;46.172;-1.158;2022-09-27T09:52:45;23.55;;;4.05;;
58565;SDS011;47788;46.172;-1.158;2022-09-27T09:55:33;18.63;;;3.35;;
58565;SDS011;47788;46.172;-1.158;2022-09-27T10:00:29;18.60;;;3.63;;
58565;SDS011;47788;46.172;-1.158;2022-09-27T10:02:57;19.92;;;3.15;;
58565;SDS011;47788;46.172;-1.158;2022-09-27T10:05:24;18.67;;;2.70;;
58565;SDS011;47788;46.172;-1.158;2022-09-27T10:07:52;18.42;;;3.33;;
58565;SDS011;47788;46.172;-1.158;2022-09-27T10:10:21;21.92;;;3.35;;
58565;SDS011;47788;46.172;-1.158;2022-09-27T10:12:48;23.92;;;3.85;;
58565;SDS011;47788;46.172;-1.158;2022-09-27T10:15:18;16.30;;;2.78;;
58565;SDS011;47788;46.172;-1.158;2022-09-27T10:17:49;17.55;;;3.17;;
58565;SDS011;47788;46.172;-1.158;2022-09-27T10:20:26;19.35;;;3.40;;
58565;SDS011;47788;46.172;-1.158;2022-09-27T10:25:58;21.85;;;3.78;;
58565;SDS011;47788;46.172;-1.158;2022-09-27T10:28:30;19.02;;;3.75;;
58565;SDS011;47788;46.172;-1.158;2022-09-27T10:31:05;18.38;;;3.53;;
58565;SDS011;47788;46.172;-1.158;2022-09-27T10:33:33;25.63;;;4.22;;
58565;SDS011;47788;46.172;-1.158;2022-09-27T10:36:35;21.60;;;4.10;;
58565;SDS011;47788;46.172;-1.158;2022-09-27T10:39:01;27.10;;;4.72;;
58565;SDS011;47788;46.172;-1.158;2022-09-27T10:41:38;21.40;;;3.60;;
58565;SDS011;47788;46.172;-1.158;2022-09-27T10:46:45;23.98;;;4.57;;
58565;SDS011;47788;46.172;-1.158;2022-09-27T10:49:26;21.95;;;4.35;;
58565;SDS011;47788;46.172;-1.158;2022-09-27T10:51:59;16.98;;;3.75;;
58565;SDS011;47788;46.172;-1.158;2022-09-27T10:54:34;23.63;;;4.78;;
58565;SDS011;47788;46.172;-1.158;2022-09-27T10:57:05;20.05;;;3.50;;
58565;SDS011;47788;46.172;-1.158;2022-09-27T10:59:48;27.20;;;4.53;;
58565;SDS011;47788;46.172;-1.158;2022-09-27T11:02:27;27.70;;;4.20;;
58565;SDS011;47788;46.172;-1.158;2022-09-27T11:05:14;28.27;;;5.07;;
58565;SDS011;47788;46.172;-1.158;2022-09-27T11:08:18;23.15;;;4.10;;
58565;SDS011;47788;46.172;-1.158;2022-09-27T11:11:10;21.30;;;3.90;;
58565;SDS011;47788;46.172;-1.158;2022-09-27T11:13:41;22.35;;;4.22;;
58565;SDS011;47788;46.172;-1.158;2022-09-27T11:25:40;22.45;;;4.47;;
58565;SDS011;47788;46.172;-1.158;2022-09-27T11:48:02;23.02;;;4.60;;
58565;SDS011;47788;46.172;-1.158;2022-09-27T11:59:07;24.45;;;4.65;;
58565;SDS011;47788;46.172;-1.158;2022-09-27T12:12:17;27.08;;;4.78;;
58565;SDS011;47788;46.172;-1.158;2022-09-27T12:14:49;26.30;;;5.05;;
58565;SDS011;47788;46.172;-1.158;2022-09-27T12:17:35;21.77;;;4.35;;
58565;SDS011;47788;46.172;-1.158;2022-09-27T12:20:08;24.73;;;5.30;;
58565;SDS011;47788;46.172;-1.158;2022-09-27T12:25:18;28.30;;;4.40;;
58565;SDS011;47788;46.172;-1.158;2022-09-27T12:27:51;23.13;;;4.65;;
58565;SDS011;47788;46.172;-1.158;2022-09-27T12:30:45;30.60;;;4.75;;
58565;SDS011;47788;46.172;-1.158;2022-09-27T12:33:25;34.55;;;5.13;;
58565;SDS011;47788;46.172;-1.158;2022-09-27T12:36:01;26.45;;;4.13;;
58565;SDS011;47788;46.172;-1.158;2022-09-27T12:38:54;28.55;;;5.03;;
58565;SDS011;47788;46.172;-1.158;2022-09-27T12:41:22;30.67;;;5.80;;
58565;SDS011;47788;46.172;-1.158;2022-09-27T12:43:50;28.10;;;5.18;;
58565;SDS011;47788;46.172;-1.158;2022-09-27T12:48:50;30.27;;;5.10;;
58565;SDS011;47788;46.172;-1.158;2022-09-27T12:51:24;33.05;;;5.35;;
58565;SDS011;47788;46.172;-1.158;2022-09-27T13:13:32;37.70;;;6.40;;
58565;SDS011;47788;46.172;-1.158;2022-09-27T13:16:00;29.30;;;5.90;;
58565;SDS011;47788;46.172;-1.158;2022-09-27T13:18:28;30.10;;;6.13;;
58565;SDS011;47788;46.172;-1.158;2022-09-27T13:21:01;31.02;;;5.25;;
58565;SDS011;47788;46.172;-1.158;2022-09-27T13:30:56;28.35;;;5.97;;
58565;SDS011;47788;46.172;-1.158;2022-09-27T13:41:19;35.95;;;6.50;;
58565;SDS011;47788;46.172;-1.158;2022-09-27T13:44:00;40.20;;;6.07;;
58565;SDS011;47788;46.172;-1.158;2022-09-27T13:46:33;26.92;;;5.63;;
58565;SDS011;47788;46.172;-1.158;2022-09-27T13:52:03;30.65;;;5.75;;
58565;SDS011;47788;46.172;-1.158;2022-09-27T13:57:40;32.72;;;6.03;;
58565;SDS011;47788;46.172;-1.158;2022-09-27T14:00:04;37.90;;;5.97;;
58565;SDS011;47788;46.172;-1.158;2022-09-27T14:02:38;34.15;;;6.20;;
58565;SDS011;47788;46.172;-1.158;2022-09-27T14:05:26;28.67;;;5.38;;
58565;SDS011;47788;46.172;-1.158;2022-09-27T14:07:57;38.22;;;6.20;;
58565;SDS011;47788;46.172;-1.158;2022-09-27T14:10:26;37.35;;;6.55;;
58565;SDS011;47788;46.172;-1.158;2022-09-27T14:12:54;37.22;;;7.68;;
58565;SDS011;47788;46.172;-1.158;2022-09-27T14:15:25;35.13;;;7.00;;
58565;SDS011;47788;46.172;-1.158;2022-09-27T14:17:53;35.28;;;6.20;;
58565;SDS011;47788;46.172;-1.158;2022-09-27T14:23:05;37.00;;;6.25;;
58565;SDS011;47788;46.172;-1.158;2022-09-27T14:25:46;29.33;;;6.93;;
58565;SDS011;47788;46.172;-1.158;2022-09-27T14:28:23;36.30;;;6.30;;
58565;SDS011;47788;46.172;-1.158;2022-09-27T14:31:12;27.67;;;5.40;;
58565;SDS011;47788;46.172;-1.158;2022-09-27T14:33:36;30.45;;;5.13;;
58565;SDS011;47788;46.172;-1.158;2022-09-27T14:36:02;29.30;;;5.60;;
58565;SDS011;47788;46.172;-1.158;2022-09-27T14:38:49;29.67;;;5.47;;
58565;SDS011;47788;46.172;-1.158;2022-09-27T14:41:16;36.35;;;6.28;;
58565;SDS011;47788;46.172;-1.158;2022-09-27T14:43:42;29.67;;;5.57;;
58565;SDS011;47788;46.172;-1.158;2022-09-27T14:46:22;31.92;;;5.25;;
58565;SDS011;47788;46.172;-1.158;2022-09-27T14:48:53;43.55;;;5.43;;
58565;SDS011;47788;46.172;-1.158;2022-09-27T14:51:21;31.15;;;5.18;;
58565;SDS011;47788;46.172;-1.158;2022-09-27T14:53:52;30.95;;;5.55;;
58565;SDS011;47788;46.172;-1.158;2022-09-27T14:56:28;32.78;;;5.80;;
58565;SDS011;47788;46.172;-1.158;2022-09-27T14:58:57;33.00;;;5.22;;
58565;SDS011;47788;46.172;-1.158;2022-09-27T15:01:27;40.83;;;7.05;;
58565;SDS011;47788;46.172;-1.158;2022-09-27T15:03:54;40.65;;;7.28;;
58565;SDS011;47788;46.172;-1.158;2022-09-27T15:06:28;36.67;;;6.95;;
58565;SDS011;47788;46.172;-1.158;2022-09-27T15:08:54;42.17;;;6.45;;
58565;SDS011;47788;46.172;-1.158;2022-09-27T15:11:21;34.85;;;6.78;;
58565;SDS011;47788;46.172;-1.158;2022-09-27T15:13:48;39.88;;;6.88;;
58565;SDS011;47788;46.172;-1.158;2022-09-27T15:16:18;35.83;;;6.80;;
58565;SDS011;47788;46.172;-1.158;2022-09-27T15:18:47;41.38;;;7.15;;
58565;SDS011;47788;46.172;-1.158;2022-09-27T15:21:30;39.58;;;6.75;;
58565;SDS011;47788;46.172;-1.158;2022-09-27T15:24:00;36.80;;;5.85;;
58565;SDS011;47788;46.172;-1.158;2022-09-27T15:26:43;37.80;;;5.90;;
58565;SDS011;47788;46.172;-1.158;2022-09-27T15:29:20;44.20;;;6.53;;
58565;SDS011;47788;46.172;-1.158;2022-09-27T15:32:04;39.28;;;6.10;;
58565;SDS011;47788;46.172;-1.158;2022-09-27T15:34:32;37.50;;;5.88;;
58565;SDS011;47788;46.172;-1.158;2022-09-27T15:36:59;42.20;;;5.82;;
58565;SDS011;47788;46.172;-1.158;2022-09-27T15:39:37;30.63;;;5.05;;
58565;SDS011;47788;46.172;-1.158;2022-09-27T15:52:46;36.92;;;6.50;;
58565;SDS011;47788;46.172;-1.158;2022-09-27T15:55:15;34.95;;;4.90;;
58565;SDS011;47788;46.172;-1.158;2022-09-27T15:57:56;34.95;;;5.45;;
58565;SDS011;47788;46.172;-1.158;2022-09-27T16:00:26;34.50;;;4.57;;
58565;SDS011;47788;46.172;-1.158;2022-09-27T16:02:52;37.97;;;6.38;;
58565;SDS011;47788;46.172;-1.158;2022-09-27T16:05:18;32.00;;;4.93;;
58565;SDS011;47788;46.172;-1.158;2022-09-27T16:07:43;34.08;;;4.50;;
58565;SDS011;47788;46.172;-1.158;2022-09-27T16:10:15;35.92;;;5.35;;
58565;SDS011;47788;46.172;-1.158;2022-09-27T16:12:43;30.65;;;4.82;;
58565;SDS011;47788;46.172;-1.158;2022-09-27T16:15:10;30.33;;;4.88;;
58565;SDS011;47788;46.172;-1.158;2022-09-27T16:17:37;27.73;;;4.63;;
58565;SDS011;47788;46.172;-1.158;2022-09-27T16:20:03;27.42;;;4.47;;
58565;SDS011;47788;46.172;-1.158;2022-09-27T16:22:30;33.42;;;5.22;;
58565;SDS011;47788;46.172;-1.158;2022-09-27T16:24:55;37.30;;;5.38;;
58565;SDS011;47788;46.172;-1.158;2022-09-27T16:27:24;29.30;;;4.45;;
58565;SDS011;47788;46.172;-1.158;2022-09-27T16:29:51;28.90;;;4.32;;
58565;SDS011;47788;46.172;-1.158;2022-09-27T16:32:18;23.42;;;4.00;;
58565;SDS011;47788;46.172;-1.158;2022-09-27T16:34:44;30.30;;;4.75;;
58565;SDS011;47788;46.172;-1.158;2022-09-27T16:37:09;28.95;;;6.68;;
58565;SDS011;47788;46.172;-1.158;2022-09-27T16:39:35;24.13;;;5.78;;
58565;SDS011;47788;46.172;-1.158;2022-09-27T16:42:01;31.88;;;4.38;;
58565;SDS011;47788;46.172;-1.158;2022-09-27T16:44:31;31.80;;;3.78;;
58565;SDS011;47788;46.172;-1.158;2022-09-27T16:47:00;29.70;;;4.20;;
58565;SDS011;47788;46.172;-1.158;2022-09-27T16:49:27;32.35;;;4.70;;
58565;SDS011;47788;46.172;-1.158;2022-09-27T16:52:11;25.75;;;4.78;;
58565;SDS011;47788;46.172;-1.158;2022-09-27T16:54:37;23.60;;;4.32;;
58565;SDS011;47788;46.172;-1.158;2022-09-27T16:57:02;27.35;;;4.60;;
58565;SDS011;47788;46.172;-1.158;2022-09-27T16:59:28;34.67;;;5.53;;
58565;SDS011;47788;46.172;-1.158;2022-09-27T17:01:54;23.85;;;4.18;;
58565;SDS011;47788;46.172;-1.158;2022-09-27T17:04:21;28.92;;;4.00;;
58565;SDS011;47788;46.172;-1.158;2022-09-27T17:06:48;28.00;;;3.78;;
58565;SDS011;47788;46.172;-1.158;2022-09-27T17:09:13;26.10;;;5.15;;
58565;SDS011;47788;46.172;-1.158;2022-09-27T17:11:39;21.35;;;4.07;;
58565;SDS011;47788;46.172;-1.158;2022-09-27T17:14:04;26.13;;;5.10;;
58565;SDS011;47788;46.172;-1.158;2022-09-27T17:16:30;18.98;;;4.78;;
58565;SDS011;47788;46.172;-1.158;2022-09-27T17:18:56;24.77;;;5.03;;
58565;SDS011;47788;46.172;-1.158;2022-09-27T17:21:21;23.25;;;3.63;;
58565;SDS011;47788;46.172;-1.158;2022-09-27T17:23:47;30.85;;;4.43;;
58565;SDS011;47788;46.172;-1.158;2022-09-27T17:26:17;26.13;;;4.15;;
58565;SDS011;47788;46.172;-1.158;2022-09-27T17:28:45;23.85;;;3.60;;
58565;SDS011;47788;46.172;-1.158;2022-09-27T17:31:12;21.35;;;3.47;;
58565;SDS011;47788;46.172;-1.158;2022-09-27T17:33:44;19.17;;;3.92;;
58565;SDS011;47788;46.172;-1.158;2022-09-27T17:36:15;17.23;;;4.00;;
58565;SDS011;47788;46.172;-1.158;2022-09-27T17:38:44;24.30;;;3.88;;
58565;SDS011;47788;46.172;-1.158;2022-09-27T17:41:11;22.15;;;2.85;;
58565;SDS011;47788;46.172;-1.158;2022-09-27T17:43:38;21.05;;;3.30;;
58565;SDS011;47788;46.172;-1.158;2022-09-27T17:46:14;12.55;;;2.83;;